Time;durP1;ratioP1;P1;durP2;ratioP2;P2;SDS_P1;SDS_P2;PMS_P1;PMS_P2;Temp;Humidity;BMP_temperature;BMP_pressure;BME280_temperature;BME280_humidity;BME280_pressure;Samples;Min_cycle;Max_cycle;Signal;HPM_P1;HPM_P2
2021/12/06 00:01:38;;;;;;;25.20;15.15;;;3.00;99.90;;;;;;5071518;28;20043;-73
2021/12/06 00:04:17;;;;;;;30.15;17.67;;;3.10;99.90;;;;;;5055381;28;20048;-73
2021/12/06 00:06:46;;;;;;;28.50;16.90;;;3.10;99.90;;;;;;5071811;28;20032;-74
2021/12/06 00:09:15;;;;;;;30.20;17.17;;;2.90;99.90;;;;;;5055297;28;20040;-73
2021/12/06 00:11:41;;;;;;;31.63;18.23;;;2.90;99.90;;;;;;5071509;28;20087;-73
2021/12/06 00:14:07;;;;;;;31.55;18.30;;;2.90;99.90;;;;;;5071849;28;20448;-73
2021/12/06 00:16:33;;;;;;;30.52;16.35;;;2.80;99.90;;;;;;5054951;28;20029;-73
2021/12/06 00:18:58;;;;;;;31.52;18.33;;;2.90;99.90;;;;;;5054876;28;20166;-73
2021/12/06 00:21:25;;;;;;;30.42;16.98;;;2.90;99.90;;;;;;5071362;28;20039;-73
2021/12/06 00:23:51;;;;;;;30.88;18.88;;;2.90;99.90;;;;;;5071562;28;20040;-73
2021/12/06 00:26:17;;;;;;;34.75;18.65;;;2.90;99.90;;;;;;5054692;28;20040;-74
2021/12/06 00:28:46;;;;;;;30.83;16.98;;;2.80;99.90;;;;;;5071721;28;20048;-74
2021/12/06 00:31:13;;;;;;;31.70;19.60;;;2.80;99.90;;;;;;5071296;28;20052;-74
2021/12/06 00:33:39;;;;;;;32.55;18.38;;;2.90;99.90;;;;;;5071686;28;20063;-74
2021/12/06 00:36:15;;;;;;;31.08;17.80;;;2.80;99.90;;;;;;5071470;28;20036;-74
2021/12/06 00:38:42;;;;;;;34.85;18.98;;;2.90;99.90;;;;;;5052539;28;20480;-73
2021/12/06 00:41:08;;;;;;;32.83;18.65;;;2.80;99.90;;;;;;5071098;28;20045;-73
2021/12/06 00:43:34;;;;;;;32.30;18.95;;;2.70;99.90;;;;;;5071344;28;20117;-73
2021/12/06 00:45:59;;;;;;;33.08;18.73;;;2.70;99.90;;;;;;5071352;28;20036;-73
2021/12/06 00:48:25;;;;;;;32.45;18.60;;;2.70;99.90;;;;;;5054491;28;20479;-73
2021/12/06 00:50:51;;;;;;;31.38;17.95;;;2.70;99.90;;;;;;5070921;28;20045;-73
2021/12/06 00:53:17;;;;;;;35.67;19.70;;;2.80;99.90;;;;;;5054695;28;20488;-73
2021/12/06 00:55:42;;;;;;;35.85;18.25;;;2.80;99.90;;;;;;5071106;28;20029;-73
2021/12/06 00:58:08;;;;;;;35.95;19.88;;;2.80;99.90;;;;;;5054471;28;20408;-73
2021/12/06 01:00:36;;;;;;;36.80;19.05;;;2.80;99.90;;;;;;5054326;28;20055;-74
2021/12/06 01:03:09;;;;;;;35.13;20.17;;;2.90;99.90;;;;;;5054395;28;20036;-73
2021/12/06 01:05:35;;;;;;;35.25;19.90;;;2.90;99.90;;;;;;5054381;28;20028;-73
2021/12/06 01:08:00;;;;;;;36.30;19.58;;;2.80;99.90;;;;;;5070952;28;20516;-73
2021/12/06 01:10:28;;;;;;;33.08;18.95;;;3.00;99.90;;;;;;5071120;28;20041;-73
2021/12/06 01:12:54;;;;;;;34.67;18.58;;;3.00;99.90;;;;;;5072784;28;20035;-73
2021/12/06 01:15:20;;;;;;;35.95;19.77;;;3.00;99.90;;;;;;5074992;28;20047;-73
2021/12/06 01:17:47;;;;;;;35.58;20.35;;;3.00;99.90;;;;;;5058521;28;20025;-73
2021/12/06 01:20:18;;;;;;;37.00;20.00;;;2.90;99.90;;;;;;5058297;28;20044;-73
2021/12/06 01:22:54;;;;;;;36.53;20.40;;;3.00;99.90;;;;;;5074863;28;20068;-73
2021/12/06 01:33:36;;;;;;;39.58;21.58;;;2.90;99.90;;;;;;5074530;28;20047;-73
2021/12/06 01:39:13;;;;;;;38.95;20.80;;;2.80;99.90;;;;;;5074530;28;20480;-73
2021/12/06 01:41:43;;;;;;;34.67;19.55;;;2.80;99.90;;;;;;5074221;28;20055;-74
2021/12/06 01:44:15;;;;;;;37.13;20.10;;;2.90;99.90;;;;;;5074788;28;20044;-73
2021/12/06 01:46:45;;;;;;;38.15;21.90;;;2.90;99.90;;;;;;5074403;28;20123;-73
2021/12/06 01:49:12;;;;;;;40.75;22.38;;;2.90;99.90;;;;;;5074231;28;20039;-74
2021/12/06 01:51:38;;;;;;;38.88;20.95;;;2.90;99.90;;;;;;5057296;28;20497;-73
2021/12/06 01:54:06;;;;;;;35.50;20.83;;;2.90;99.90;;;;;;5074450;28;20044;-73
2021/12/06 01:56:32;;;;;;;34.63;19.10;;;2.90;99.90;;;;;;5074244;28;20036;-74
2021/12/06 01:58:57;;;;;;;39.85;21.00;;;3.00;99.90;;;;;;5074324;28;20439;-73
2021/12/06 02:01:23;;;;;;;37.05;20.75;;;3.00;99.90;;;;;;5057454;28;20469;-73
2021/12/06 02:03:49;;;;;;;34.95;19.05;;;3.00;99.90;;;;;;5057540;28;20499;-73
2021/12/06 02:06:15;;;;;;;38.38;22.60;;;3.00;99.90;;;;;;5074223;28;20041;-73
2021/12/06 02:08:41;;;;;;;40.20;21.35;;;2.90;99.90;;;;;;5073998;28;20135;-73
2021/12/06 02:11:07;;;;;;;37.03;19.88;;;2.80;99.90;;;;;;5057206;28;20036;-74
2021/12/06 02:13:44;;;;;;;38.63;20.88;;;2.80;99.90;;;;;;5073769;28;20036;-73
2021/12/06 02:16:10;;;;;;;38.75;21.05;;;2.80;99.90;;;;;;5074004;28;20032;-73
2021/12/06 02:21:19;;;;;;;38.17;19.67;;;2.90;99.90;;;;;;5073814;28;20041;-74
2021/12/06 02:23:47;;;;;;;38.35;20.52;;;3.00;99.90;;;;;;5056318;28;20043;-73
2021/12/06 02:26:13;;;;;;;38.15;20.75;;;3.10;99.90;;;;;;5073739;28;20040;-73
2021/12/06 02:28:38;;;;;;;36.00;18.80;;;2.90;99.90;;;;;;5057160;28;20408;-74
2021/12/06 02:31:04;;;;;;;39.30;22.38;;;3.00;99.90;;;;;;5057102;28;20044;-73
2021/12/06 02:33:30;;;;;;;41.92;23.70;;;2.90;99.90;;;;;;5073402;28;20041;-73
2021/12/06 02:35:56;;;;;;;35.83;20.05;;;3.00;99.90;;;;;;5073809;28;20044;-73
2021/12/06 02:38:22;;;;;;;36.95;20.90;;;3.00;99.90;;;;;;5056651;28;20504;-73
2021/12/06 02:40:47;;;;;;;36.58;22.10;;;3.00;99.90;;;;;;5056708;28;20445;-73
2021/12/06 02:43:13;;;;;;;35.60;20.58;;;3.10;99.90;;;;;;5073370;28;20041;-73
2021/12/06 02:45:41;;;;;;;37.65;21.00;;;3.00;99.90;;;;;;5073422;28;20043;-74
2021/12/06 02:48:09;;;;;;;37.72;21.77;;;2.90;99.90;;;;;;5056568;28;20136;-73
2021/12/06 02:50:51;;;;;;;34.30;19.35;;;2.90;99.90;;;;;;5056479;28;20081;-73
2021/12/06 02:53:18;;;;;;;;;;;2.90;99.90;;;;;;5056832;28;20045;-74
2021/12/06 02:55:51;;;;;;;35.30;19.30;;;2.80;99.90;;;;;;5073137;28;19956;-73
2021/12/06 03:01:20;;;;;;;37.80;20.30;;;2.80;99.90;;;;;;5073025;28;20162;-73
2021/12/06 03:03:46;;;;;;;36.92;19.35;;;3.00;99.90;;;;;;5056213;28;20047;-74
2021/12/06 03:06:13;;;;;;;36.60;20.45;;;3.00;99.90;;;;;;5073141;28;20028;-73
2021/12/06 03:09:06;;;;;;;35.05;18.90;;;3.00;99.90;;;;;;5072758;28;20123;-74
2021/12/06 03:11:42;;;;;;;;;;;3.10;99.90;;;;;;5066696;28;20068;-73
2021/12/06 03:14:12;;;;;;;34.40;19.50;;;2.90;99.90;;;;;;5072889;28;19944;-74
2021/12/06 03:16:39;;;;;;;35.17;19.55;;;3.00;99.90;;;;;;5072687;28;20036;-74
2021/12/06 03:19:06;;;;;;;39.30;20.92;;;3.00;99.90;;;;;;5056287;28;20464;-74
2021/12/06 03:21:32;;;;;;;36.95;20.48;;;3.00;99.90;;;;;;5072594;28;20040;-74
2021/12/06 03:23:59;;;;;;;35.47;19.35;;;3.10;99.90;;;;;;5072525;28;20044;-73
2021/12/06 03:26:27;;;;;;;37.22;21.00;;;3.10;99.90;;;;;;5072611;28;20033;-74
2021/12/06 03:28:53;;;;;;;37.10;19.95;;;3.00;99.90;;;;;;5068574;28;20034;-73
2021/12/06 03:31:19;;;;;;;36.63;19.77;;;3.10;99.90;;;;;;5072034;28;20444;-74
2021/12/06 03:33:48;;;;;;;38.88;20.15;;;3.10;99.90;;;;;;5071809;28;20028;-74
2021/12/06 03:36:15;;;;;;;35.97;19.38;;;3.00;99.90;;;;;;5054853;28;20032;-73
2021/12/06 03:38:41;;;;;;;36.75;19.60;;;3.10;99.90;;;;;;5072545;28;20059;-74
2021/12/06 03:41:10;;;;;;;35.90;19.00;;;3.30;99.90;;;;;;5072114;28;20036;-74
2021/12/06 03:43:36;;;;;;;37.78;18.67;;;3.30;99.90;;;;;;5072087;28;20036;-74
2021/12/06 03:46:02;;;;;;;38.08;20.33;;;3.30;99.90;;;;;;5072139;28;20043;-73
2021/12/06 03:48:28;;;;;;;35.72;19.90;;;3.40;99.90;;;;;;5072051;28;20075;-73
2021/12/06 03:50:53;;;;;;;39.33;21.02;;;3.30;99.90;;;;;;5071773;28;20068;-73
2021/12/06 03:53:19;;;;;;;40.70;22.58;;;3.30;99.90;;;;;;5055211;28;20062;-73
2021/12/06 03:55:45;;;;;;;39.78;21.17;;;3.20;99.90;;;;;;5071921;28;20141;-73
2021/12/06 03:58:10;;;;;;;41.63;20.95;;;3.20;99.90;;;;;;5055227;28;20098;-74
2021/12/06 04:00:36;;;;;;;37.38;20.38;;;3.30;99.90;;;;;;5071866;28;20056;-73
2021/12/06 04:03:03;;;;;;;41.90;23.15;;;3.30;99.90;;;;;;5071885;28;20496;-73
2021/12/06 04:05:29;;;;;;;40.35;22.13;;;3.30;99.90;;;;;;5055431;28;20048;-73
2021/12/06 04:07:55;;;;;;;41.17;21.40;;;3.30;99.90;;;;;;5055201;28;20031;-73
2021/12/06 04:10:20;;;;;;;41.95;22.02;;;3.20;99.90;;;;;;5054995;28;20557;-74
2021/12/06 04:12:46;;;;;;;39.45;20.73;;;3.30;99.90;;;;;;5071674;28;20499;-73
2021/12/06 04:15:13;;;;;;;37.80;21.00;;;3.30;99.90;;;;;;5054904;28;20082;-74
2021/12/06 04:17:39;;;;;;;38.38;20.17;;;3.30;99.90;;;;;;5054918;28;20038;-73
2021/12/06 04:20:08;;;;;;;38.53;19.73;;;3.40;99.90;;;;;;5054856;28;20036;-74
2021/12/06 04:22:35;;;;;;;36.28;18.83;;;3.30;99.90;;;;;;5071430;28;20103;-73
2021/12/06 04:25:02;;;;;;;36.95;18.92;;;3.40;99.90;;;;;;5054732;28;20044;-73
2021/12/06 04:27:29;;;;;;;37.38;20.77;;;3.50;99.90;;;;;;5054585;28;20063;-74
2021/12/06 04:29:55;;;;;;;40.08;21.17;;;3.50;99.90;;;;;;5071470;28;20040;-74
2021/12/06 04:32:21;;;;;;;37.65;19.63;;;3.40;99.90;;;;;;5054604;28;20484;-74
2021/12/06 04:34:47;;;;;;;40.00;21.27;;;3.40;99.90;;;;;;5054739;28;20030;-74
2021/12/06 04:37:13;;;;;;;40.80;20.73;;;3.50;99.90;;;;;;5054588;28;20434;-74
2021/12/06 04:39:40;;;;;;;41.10;20.83;;;3.50;99.90;;;;;;5054899;28;20033;-74
2021/12/06 04:42:07;;;;;;;40.92;21.52;;;3.50;99.90;;;;;;5071541;28;20101;-73
2021/12/06 04:44:32;;;;;;;38.65;20.15;;;3.50;99.90;;;;;;5054661;28;20036;-73
2021/12/06 04:46:59;;;;;;;40.33;21.13;;;3.40;99.90;;;;;;5071029;28;20492;-73
2021/12/06 04:49:28;;;;;;;41.70;21.75;;;3.40;99.90;;;;;;5071126;28;20119;-74
2021/12/06 04:51:55;;;;;;;41.00;21.52;;;3.40;99.90;;;;;;5054196;28;20443;-73
2021/12/06 04:54:25;;;;;;;40.47;20.60;;;3.40;99.90;;;;;;5071098;28;20086;-73
2021/12/06 04:57:07;;;;;;;37.25;20.05;;;3.50;99.90;;;;;;5054388;28;20028;-73
2021/12/06 04:59:40;;;;;;;38.27;20.53;;;3.40;99.90;;;;;;5071241;28;20040;-73
2021/12/06 05:02:11;;;;;;;41.72;22.08;;;3.40;99.90;;;;;;5054344;28;20040;-74
2021/12/06 05:04:39;;;;;;;39.92;20.75;;;3.30;99.90;;;;;;5070995;28;20119;-73
2021/12/06 05:07:12;;;;;;;39.53;21.08;;;3.30;99.90;;;;;;5071256;28;20128;-74
2021/12/06 05:09:41;;;;;;;42.80;21.10;;;3.30;99.90;;;;;;5071097;28;20049;-74
2021/12/06 05:12:09;;;;;;;42.03;20.95;;;3.30;99.90;;;;;;5054272;28;20456;-73
2021/12/06 05:14:35;;;;;;;40.97;20.42;;;3.40;99.90;;;;;;5054163;28;20036;-74
2021/12/06 05:17:01;;;;;;;45.72;22.67;;;3.40;99.90;;;;;;5071182;28;20105;-73
2021/12/06 05:19:26;;;;;;;42.20;21.52;;;3.50;99.90;;;;;;5070930;28;20033;-74
2021/12/06 05:21:52;;;;;;;42.15;21.77;;;3.40;99.90;;;;;;5071172;28;20036;-73
2021/12/06 05:24:19;;;;;;;42.53;22.15;;;3.40;99.90;;;;;;5070846;28;20048;-74
2021/12/06 05:26:44;;;;;;;40.78;20.83;;;3.40;99.90;;;;;;5070942;28;20090;-74
2021/12/06 05:29:12;;;;;;;39.78;21.27;;;3.40;99.90;;;;;;5054134;28;20044;-74
2021/12/06 05:31:40;;;;;;;39.70;21.23;;;3.40;99.90;;;;;;5054257;28;20457;-74
2021/12/06 05:34:15;;;;;;;40.78;20.13;;;3.30;99.90;;;;;;5053924;28;20060;-74
2021/12/06 05:36:42;;;;;;;41.58;21.35;;;3.30;99.90;;;;;;5071062;28;20040;-74
2021/12/06 05:39:08;;;;;;;41.42;21.15;;;3.30;99.90;;;;;;5070786;28;20119;-73
2021/12/06 05:41:34;;;;;;;41.05;21.73;;;3.20;99.90;;;;;;5070904;28;20084;-73
2021/12/06 05:44:00;;;;;;;41.33;21.20;;;3.20;99.90;;;;;;5053917;28;20032;-73
2021/12/06 05:46:26;;;;;;;42.83;21.48;;;3.40;99.90;;;;;;5070590;28;20093;-74
2021/12/06 05:48:51;;;;;;;43.78;20.10;;;3.30;99.90;;;;;;5070890;28;20127;-73
2021/12/06 05:51:17;;;;;;;39.70;20.08;;;3.40;99.90;;;;;;5053614;28;20615;-73
2021/12/06 05:53:42;;;;;;;43.55;21.98;;;3.50;99.90;;;;;;5070659;28;20040;-74
2021/12/06 05:56:08;;;;;;;39.72;21.20;;;3.40;99.90;;;;;;5070365;28;20072;-73
2021/12/06 05:58:35;;;;;;;39.97;21.25;;;3.40;99.90;;;;;;5071858;28;20040;-74
2021/12/06 06:01:02;;;;;;;42.55;20.80;;;3.40;99.90;;;;;;5057655;28;20040;-74
2021/12/06 06:03:28;;;;;;;43.85;21.95;;;3.40;99.90;;;;;;5074202;28;20500;-74
2021/12/06 06:05:53;;;;;;;40.20;20.63;;;3.40;99.90;;;;;;5057294;28;20037;-74
2021/12/06 06:08:20;;;;;;;41.90;21.05;;;3.40;99.90;;;;;;5057393;28;20123;-74
2021/12/06 06:10:47;;;;;;;38.97;19.77;;;3.40;99.90;;;;;;5074074;28;20448;-74
2021/12/06 06:13:12;;;;;;;40.78;19.67;;;3.40;99.90;;;;;;5073900;28;20552;-74
2021/12/06 06:15:38;;;;;;;39.25;18.83;;;3.40;99.90;;;;;;5057360;28;20146;-73
2021/12/06 06:18:05;;;;;;;39.75;19.65;;;3.50;99.90;;;;;;5073906;28;20036;-74
2021/12/06 06:20:50;;;;;;;40.45;19.23;;;3.60;99.90;;;;;;5073768;28;20037;-73
2021/12/06 06:23:17;;;;;;;42.20;18.50;;;3.60;99.90;;;;;;5074031;28;20064;-73
2021/12/06 06:25:44;;;;;;;42.38;21.75;;;3.50;99.90;;;;;;5073637;28;20078;-74
2021/12/06 06:28:09;;;;;;;40.95;20.80;;;3.40;99.90;;;;;;5073650;28;20090;-74
2021/12/06 06:30:36;;;;;;;41.38;19.65;;;3.40;99.90;;;;;;5056992;28;20036;-74
2021/12/06 06:33:02;;;;;;;45.58;21.02;;;3.40;99.90;;;;;;5073528;28;20037;-74
2021/12/06 06:35:27;;;;;;;45.28;22.67;;;3.40;99.90;;;;;;5073448;28;20298;-73
2021/12/06 06:37:53;;;;;;;47.25;22.23;;;3.40;99.90;;;;;;5073699;28;20119;-74
2021/12/06 06:40:19;;;;;;;44.75;21.80;;;3.30;99.90;;;;;;5073383;28;20033;-73
2021/12/06 06:42:46;;;;;;;45.90;22.15;;;3.20;99.90;;;;;;5073703;28;20362;-74
2021/12/06 06:45:15;;;;;;;39.05;17.23;;;3.10;99.90;;;;;;5056646;28;20033;-74
2021/12/06 06:47:41;;;;;;;48.28;23.38;;;3.30;99.90;;;;;;5056686;28;20032;-73
2021/12/06 06:50:07;;;;;;;48.55;20.85;;;3.50;99.90;;;;;;5073390;28;20032;-72
2021/12/06 06:52:33;;;;;;;49.03;22.67;;;3.20;99.90;;;;;;5073093;28;20040;-74
2021/12/06 06:55:00;;;;;;;43.30;20.05;;;3.30;99.90;;;;;;5073052;28;20119;-74
2021/12/06 06:57:26;;;;;;;43.65;21.02;;;3.50;99.90;;;;;;5056438;28;20033;-74
2021/12/06 06:59:51;;;;;;;41.35;20.83;;;3.50;99.90;;;;;;5073038;28;20090;-73
2021/12/06 07:02:17;;;;;;;42.55;20.33;;;3.40;99.90;;;;;;5056352;28;20068;-74
2021/12/06 07:04:43;;;;;;;41.38;19.17;;;3.40;99.90;;;;;;5056241;28;20392;-73
2021/12/06 07:07:09;;;;;;;42.15;20.70;;;3.40;99.90;;;;;;5072809;28;20048;-74
2021/12/06 07:09:35;;;;;;;44.30;20.20;;;3.40;99.90;;;;;;5056168;28;20043;-74
2021/12/06 07:12:01;;;;;;;44.15;19.63;;;3.40;99.90;;;;;;5072837;28;20145;-74
2021/12/06 07:14:27;;;;;;;46.90;20.98;;;3.40;99.90;;;;;;5072611;28;20477;-74
2021/12/06 07:16:53;;;;;;;44.42;20.08;;;3.30;99.90;;;;;;5072688;28;20041;-73
2021/12/06 07:19:19;;;;;;;48.47;21.83;;;3.20;99.90;;;;;;5072593;28;20477;-74
2021/12/06 07:21:45;;;;;;;39.80;18.70;;;3.20;99.90;;;;;;5055961;28;20037;-74
2021/12/06 07:24:11;;;;;;;45.25;20.05;;;3.20;99.90;;;;;;5055921;28;20044;-74
2021/12/06 07:26:37;;;;;;;45.70;19.10;;;3.30;99.90;;;;;;5072663;28;20370;-73
2021/12/06 07:29:03;;;;;;;49.78;20.98;;;3.40;99.90;;;;;;5072797;28;20047;-73
2021/12/06 07:31:28;;;;;;;40.72;19.88;;;3.40;99.90;;;;;;5072379;28;20103;-74
2021/12/06 07:33:54;;;;;;;42.42;18.48;;;3.40;99.90;;;;;;5055779;28;20119;-74
2021/12/06 07:36:23;;;;;;;44.67;20.05;;;3.50;99.90;;;;;;5072138;28;20119;-73
2021/12/06 07:38:50;;;;;;;43.40;19.50;;;3.50;99.90;;;;;;5072302;28;20097;-74
2021/12/06 07:41:18;;;;;;;39.97;19.17;;;3.60;99.90;;;;;;5055573;28;20044;-74
2021/12/06 07:43:44;;;;;;;39.38;17.05;;;3.50;99.90;;;;;;5055823;28;20036;-74
2021/12/06 07:46:09;;;;;;;39.55;19.05;;;3.60;99.90;;;;;;5072167;28;20040;-74
2021/12/06 07:48:37;;;;;;;37.15;17.17;;;3.60;99.90;;;;;;5055738;28;20059;-74
2021/12/06 07:51:05;;;;;;;36.22;18.10;;;3.70;99.90;;;;;;5071826;28;20182;-73
2021/12/06 07:53:33;;;;;;;36.47;16.67;;;3.60;99.90;;;;;;5055325;28;20116;-74
2021/12/06 07:55:59;;;;;;;39.55;17.67;;;3.60;99.90;;;;;;5055226;28;20044;-73
2021/12/06 07:58:25;;;;;;;40.03;18.00;;;3.60;99.90;;;;;;5072139;28;20040;-74
2021/12/06 08:00:52;;;;;;;37.95;19.08;;;3.60;99.90;;;;;;5055516;28;20415;-74
2021/12/06 08:03:21;;;;;;;40.08;20.23;;;3.60;99.90;;;;;;5055419;28;20431;-75
2021/12/06 08:05:49;;;;;;;39.13;17.67;;;3.50;99.90;;;;;;5071681;28;20123;-75
2021/12/06 08:08:18;;;;;;;39.17;18.35;;;3.50;99.90;;;;;;5055156;28;20045;-75
2021/12/06 08:10:50;;;;;;;43.25;20.10;;;3.50;99.90;;;;;;5071601;28;20548;-75
2021/12/06 08:13:19;;;;;;;42.53;17.33;;;3.60;99.90;;;;;;5055214;28;20044;-75
2021/12/06 08:15:46;;;;;;;36.22;16.65;;;3.60;99.90;;;;;;5071508;28;20036;-75
2021/12/06 08:18:12;;;;;;;37.72;16.17;;;3.60;99.90;;;;;;5071627;28;20047;-75
2021/12/06 08:20:38;;;;;;;37.35;18.17;;;3.70;99.90;;;;;;5071191;28;20127;-75
2021/12/06 08:23:05;;;;;;;36.17;17.42;;;3.60;99.90;;;;;;5054768;28;20572;-75
2021/12/06 08:25:32;;;;;;;37.47;16.85;;;3.60;99.90;;;;;;5055016;28;20024;-75
2021/12/06 08:27:58;;;;;;;39.40;19.05;;;3.70;99.90;;;;;;5071407;28;20051;-75
2021/12/06 08:30:25;;;;;;;37.95;16.70;;;3.60;99.90;;;;;;5071260;28;20036;-75
2021/12/06 08:32:53;;;;;;;30.25;12.73;;;3.60;99.90;;;;;;5054784;28;20071;-75
2021/12/06 08:35:20;;;;;;;31.73;14.55;;;3.60;99.90;;;;;;5071671;28;20045;-75
2021/12/06 08:37:46;;;;;;;31.05;15.88;;;3.80;99.90;;;;;;5054506;28;20029;-75
2021/12/06 08:40:13;;;;;;;33.92;14.68;;;3.70;99.90;;;;;;5054935;28;20408;-75
2021/12/06 08:42:39;;;;;;;38.03;17.67;;;3.80;99.90;;;;;;5054492;28;20052;-75
2021/12/06 08:45:06;;;;;;;39.40;17.70;;;3.60;99.90;;;;;;5054915;28;20394;-75
2021/12/06 08:47:31;;;;;;;37.13;17.58;;;3.60;99.90;;;;;;5054299;28;20159;-75
2021/12/06 08:49:57;;;;;;;34.63;15.68;;;3.60;99.90;;;;;;5071277;28;20123;-75
2021/12/06 08:52:23;;;;;;;36.25;15.95;;;3.60;99.90;;;;;;5070892;28;20048;-75
2021/12/06 08:54:49;;;;;;;38.88;16.60;;;3.60;99.90;;;;;;5054416;28;20422;-75
2021/12/06 08:57:15;;;;;;;36.30;15.80;;;3.80;99.90;;;;;;5071306;28;20032;-75
2021/12/06 08:59:40;;;;;;;32.17;14.93;;;3.80;99.90;;;;;;5054483;28;20029;-75
2021/12/06 09:02:06;;;;;;;29.33;13.48;;;3.80;99.90;;;;;;5071063;28;20040;-75
2021/12/06 09:04:37;;;;;;;28.50;15.65;;;3.90;99.90;;;;;;5071141;28;20041;-75
2021/12/06 09:07:10;;;;;;;34.20;15.30;;;3.80;99.90;;;;;;5071264;28;20036;-75
2021/12/06 09:09:36;;;;;;;29.33;14.25;;;3.90;99.90;;;;;;5054246;28;20032;-75
2021/12/06 09:12:02;;;;;;;27.40;12.75;;;3.80;99.90;;;;;;5054273;28;20044;-75
2021/12/06 09:14:28;;;;;;;28.27;15.07;;;3.90;99.90;;;;;;5071146;28;20118;-75
2021/12/06 09:16:55;;;;;;;27.02;12.05;;;3.90;99.90;;;;;;5070810;28;20033;-75
2021/12/06 09:19:21;;;;;;;30.17;14.77;;;3.80;99.90;;;;;;5054325;28;20078;-75
2021/12/06 09:21:47;;;;;;;29.30;14.13;;;3.90;99.90;;;;;;5054128;28;20072;-75
2021/12/06 09:24:19;;;;;;;28.42;13.23;;;3.80;99.90;;;;;;5054846;28;20434;-75
2021/12/06 09:26:47;;;;;;;34.45;14.57;;;3.70;99.90;;;;;;5070787;28;20076;-75
2021/12/06 09:29:13;;;;;;;27.48;12.55;;;3.60;99.90;;;;;;5070815;28;20101;-75
2021/12/06 09:31:39;;;;;;;26.40;12.70;;;3.70;99.90;;;;;;5054159;28;20032;-75
2021/12/06 09:34:06;;;;;;;28.88;13.38;;;3.70;99.90;;;;;;5056318;28;20040;-75
2021/12/06 09:36:33;;;;;;;27.48;14.38;;;3.70;99.90;;;;;;5074847;28;20115;-75
2021/12/06 09:39:00;;;;;;;31.40;14.18;;;3.70;99.90;;;;;;5058108;28;20461;-75
2021/12/06 09:41:27;;;;;;;30.88;15.43;;;3.60;99.90;;;;;;5074532;28;20036;-75
2021/12/06 09:43:57;;;;;;;32.17;14.60;;;3.70;99.90;;;;;;5074466;28;20040;-75
2021/12/06 09:46:23;;;;;;;28.27;13.10;;;3.80;99.90;;;;;;5057755;28;20032;-75
2021/12/06 09:48:49;;;;;;;29.83;14.77;;;3.80;99.90;;;;;;5057665;28;20064;-75
2021/12/06 09:51:21;;;;;;;28.15;13.82;;;3.60;99.90;;;;;;5074184;28;20091;-75
2021/12/06 09:53:48;;;;;;;29.90;14.93;;;3.70;99.90;;;;;;5074283;28;20156;-75
2021/12/06 09:56:24;;;;;;;31.48;13.93;;;3.60;99.90;;;;;;5074280;28;20128;-75
2021/12/06 09:58:51;;;;;;;28.17;13.25;;;3.70;99.90;;;;;;5057528;28;20123;-75
2021/12/06 10:01:25;;;;;;;27.58;13.73;;;3.70;99.90;;;;;;5057410;28;20036;-75
2021/12/06 10:03:54;;;;;;;29.58;14.38;;;3.70;99.90;;;;;;5057690;28;20404;-75
2021/12/06 10:06:21;;;;;;;25.63;12.68;;;3.80;99.90;;;;;;5057581;28;20456;-75
2021/12/06 10:08:50;;;;;;;26.75;13.48;;;3.90;99.90;;;;;;5074158;28;20395;-75
2021/12/06 10:11:17;;;;;;;24.92;13.00;;;3.80;99.90;;;;;;5057221;28;20079;-75
2021/12/06 10:13:44;;;;;;;27.65;14.60;;;3.80;99.90;;;;;;5057318;28;20473;-75
2021/12/06 10:16:10;;;;;;;23.23;11.25;;;3.70;99.90;;;;;;5057535;28;20416;-75
2021/12/06 10:18:36;;;;;;;27.02;13.65;;;3.80;99.90;;;;;;5057165;28;20496;-75
2021/12/06 10:21:03;;;;;;;27.55;12.45;;;3.80;99.90;;;;;;5073974;28;20244;-75
2021/12/06 10:23:29;;;;;;;23.17;10.48;;;3.90;99.90;;;;;;5073797;28;20124;-75
2021/12/06 10:25:56;;;;;;;28.80;13.40;;;3.90;99.90;;;;;;5057298;28;20036;-75
2021/12/06 10:28:27;;;;;;;29.33;14.77;;;3.80;99.90;;;;;;5057039;28;20072;-76
2021/12/06 10:30:59;;;;;;;26.10;12.75;;;3.70;99.90;;;;;;5073687;28;20075;-75
2021/12/06 10:33:27;;;;;;;25.70;11.53;;;3.80;99.90;;;;;;5073579;28;20032;-75
2021/12/06 10:35:56;;;;;;;30.65;15.00;;;3.80;99.90;;;;;;5057084;28;20619;-75
2021/12/06 10:38:27;;;;;;;33.70;13.65;;;3.80;99.90;;;;;;5073841;28;20111;-75
2021/12/06 10:41:15;;;;;;;32.08;15.70;;;3.80;99.90;;;;;;5073718;28;20037;-75
2021/12/06 10:43:50;;;;;;;35.35;17.52;;;3.80;99.90;;;;;;5073121;28;20040;-75
2021/12/06 10:46:16;;;;;;;41.28;19.90;;;3.60;99.90;;;;;;5073402;28;20048;-74
2021/12/06 10:48:42;;;;;;;36.17;15.80;;;3.60;99.90;;;;;;5073288;28;20036;-74
2021/12/06 10:51:10;;;;;;;46.70;21.40;;;3.80;99.90;;;;;;5072919;28;20515;-74
2021/12/06 10:53:44;;;;;;;31.95;14.45;;;3.80;99.90;;;;;;5056648;28;20037;-74
2021/12/06 10:56:20;;;;;;;34.38;16.85;;;3.80;99.90;;;;;;5056522;28;20120;-74
2021/12/06 10:58:50;;;;;;;26.50;12.02;;;3.70;99.90;;;;;;5073051;28;20036;-74
2021/12/06 11:01:28;;;;;;;19.98;9.82;;;3.70;99.90;;;;;;5073133;28;20032;-74
2021/12/06 11:03:55;;;;;;;24.63;10.02;;;3.80;99.90;;;;;;5056333;28;20047;-74
2021/12/06 11:06:26;;;;;;;30.80;14.70;;;3.70;99.90;;;;;;5073008;28;20043;-74
2021/12/06 11:08:55;;;;;;;31.50;16.00;;;3.60;99.90;;;;;;5072809;28;20037;-73
2021/12/06 11:11:45;;;;;;;35.53;16.55;;;3.60;99.90;;;;;;5072718;28;20032;-74
2021/12/06 11:14:15;;;;;;;31.67;15.68;;;3.70;99.90;;;;;;5048532;28;20512;-74
2021/12/06 11:16:43;;;;;;;33.63;15.82;;;3.60;99.90;;;;;;5056163;28;20039;-74
2021/12/06 11:19:12;;;;;;;30.60;13.90;;;3.60;99.90;;;;;;5055888;28;20488;-73
2021/12/06 11:21:49;;;;;;;27.52;13.32;;;3.50;99.90;;;;;;5072988;28;20050;-74
2021/12/06 11:24:22;;;;;;;31.23;13.88;;;3.60;99.90;;;;;;5055898;28;20102;-74
2021/12/06 11:26:51;;;;;;;27.00;12.40;;;3.70;99.90;;;;;;5055941;28;20040;-74
2021/12/06 11:29:33;;;;;;;22.52;10.40;;;3.80;99.90;;;;;;5055828;28;20048;-74
2021/12/06 11:32:17;;;;;;;26.08;13.80;;;3.80;99.90;;;;;;5055556;28;20033;-74
2021/12/06 11:35:06;;;;;;;23.77;12.00;;;3.70;99.90;;;;;;5072543;28;20032;-74
2021/12/06 11:37:43;;;;;;;25.65;13.35;;;3.70;99.90;;;;;;5055831;28;20028;-74
2021/12/06 11:40:21;;;;;;;24.45;13.52;;;3.60;99.90;;;;;;5055552;28;20123;-74
2021/12/06 11:42:51;;;;;;;23.83;13.00;;;3.70;99.90;;;;;;5072397;28;20150;-74
2021/12/06 11:45:43;;;;;;;23.30;13.13;;;3.70;99.90;;;;;;5072525;28;20054;-74
2021/12/06 11:48:29;;;;;;;26.45;12.48;;;3.60;99.90;;;;;;5072161;28;20052;-74
2021/12/06 11:51:16;;;;;;;24.52;12.57;;;3.70;99.90;;;;;;5071864;28;20443;-73
2021/12/06 11:53:44;;;;;;;21.83;11.95;;;3.70;99.90;;;;;;5055441;28;20029;-74
2021/12/06 11:56:14;;;;;;;19.63;10.10;;;3.70;99.90;;;;;;5054581;28;20042;-74
2021/12/06 11:58:43;;;;;;;28.48;14.13;;;3.80;99.90;;;;;;5071861;28;20033;-74
2021/12/06 12:01:19;;;;;;;25.65;13.77;;;3.70;99.90;;;;;;5071709;28;20110;-74
2021/12/06 12:03:47;;;;;;;27.30;11.45;;;3.70;99.90;;;;;;5055214;28;20094;-74
2021/12/06 12:06:30;;;;;;;27.25;13.68;;;3.80;99.90;;;;;;5071925;28;20040;-74
2021/12/06 12:09:04;;;;;;;;;;;3.80;99.90;;;;;;5055462;28;20477;-74
2021/12/06 12:11:30;;;;;;;25.77;11.73;;;3.90;99.90;;;;;;5054874;28;19920;-74
2021/12/06 12:13:57;;;;;;;23.08;10.88;;;3.80;99.90;;;;;;5071677;28;20044;-74
2021/12/06 12:16:24;;;;;;;21.42;12.00;;;3.90;99.90;;;;;;5071787;28;20064;-74
2021/12/06 12:18:49;;;;;;;16.88;7.50;;;3.90;99.90;;;;;;5055264;28;20381;-74
2021/12/06 12:21:15;;;;;;;30.33;15.55;;;4.00;99.90;;;;;;5071766;28;20098;-74
2021/12/06 12:23:42;;;;;;;28.27;14.55;;;3.90;99.90;;;;;;5054935;28;20079;-74
2021/12/06 12:26:17;;;;;;;27.02;14.02;;;3.80;99.90;;;;;;5054596;28;20527;-74
2021/12/06 12:28:52;;;;;;;30.17;13.68;;;3.80;99.90;;;;;;5071655;28;20115;-74
2021/12/06 12:31:20;;;;;;;21.90;11.30;;;3.90;99.90;;;;;;5071710;28;20052;-74
2021/12/06 12:33:48;;;;;;;27.23;12.85;;;4.00;99.90;;;;;;5071328;28;20033;-74
2021/12/06 12:36:17;;;;;;;28.50;14.57;;;4.00;99.90;;;;;;5071470;28;20044;-74
2021/12/06 12:38:46;;;;;;;25.63;12.63;;;4.10;99.90;;;;;;5054829;28;20047;-74
2021/12/06 12:41:16;;;;;;;22.75;9.70;;;4.10;99.90;;;;;;5054589;28;20094;-74
2021/12/06 12:43:48;;;;;;;20.20;9.32;;;4.10;99.90;;;;;;5071310;28;20051;-74
2021/12/06 12:46:15;;;;;;;26.42;14.27;;;4.00;99.90;;;;;;5054901;28;20401;-74
2021/12/06 12:48:51;;;;;;;25.77;13.13;;;4.10;99.90;;;;;;5070912;28;20043;-74
2021/12/06 12:51:27;;;;;;;22.27;11.00;;;4.10;99.90;;;;;;5054161;28;20049;-74
2021/12/06 12:54:07;;;;;;;19.15;8.48;;;4.00;99.90;;;;;;5071279;28;20050;-74
2021/12/06 12:56:38;;;;;;;22.23;9.88;;;4.20;99.90;;;;;;5054807;28;20468;-74
2021/12/06 12:59:26;;;;;;;26.13;12.82;;;4.30;99.90;;;;;;5054756;28;20059;-74
2021/12/06 13:02:17;;;;;;;28.52;13.25;;;4.20;99.90;;;;;;5054566;28;20056;-74